sensor_id;sensor_type;location;lat;lon;timestamp;P1;durP1;ratioP1;P2;durP2;ratioP2
45848;SDS011;31567;54.600;9.842;2023-11-22T00:02:09;5.88;;;2.40;;
45848;SDS011;31567;54.600;9.842;2023-11-22T00:05:49;5.50;;;2.50;;
45848;SDS011;31567;54.600;9.842;2023-11-22T00:09:30;4.07;;;3.38;;
45848;SDS011;31567;54.600;9.842;2023-11-22T00:13:10;2.65;;;2.25;;
45848;SDS011;31567;54.600;9.842;2023-11-22T00:16:50;3.55;;;2.47;;
45848;SDS011;31567;54.600;9.842;2023-11-22T00:20:30;2.72;;;2.33;;
45848;SDS011;31567;54.600;9.842;2023-11-22T00:24:10;3.97;;;2.78;;
45848;SDS011;31567;54.600;9.842;2023-11-22T00:27:49;3.58;;;2.38;;
45848;SDS011;31567;54.600;9.842;2023-11-22T00:31:29;2.95;;;2.60;;
45848;SDS011;31567;54.600;9.842;2023-11-22T00:35:08;3.92;;;2.53;;
45848;SDS011;31567;54.600;9.842;2023-11-22T00:38:48;3.83;;;2.90;;
45848;SDS011;31567;54.600;9.842;2023-11-22T00:42:28;4.53;;;2.90;;
45848;SDS011;31567;54.600;9.842;2023-11-22T00:46:07;3.55;;;2.92;;
45848;SDS011;31567;54.600;9.842;2023-11-22T00:49:47;6.13;;;3.03;;
45848;SDS011;31567;54.600;9.842;2023-11-22T00:53:26;7.75;;;3.42;;
45848;SDS011;31567;54.600;9.842;2023-11-22T00:57:06;4.07;;;3.10;;
45848;SDS011;31567;54.600;9.842;2023-11-22T01:00:46;5.93;;;3.10;;
45848;SDS011;31567;54.600;9.842;2023-11-22T01:04:25;4.63;;;2.88;;
45848;SDS011;31567;54.600;9.842;2023-11-22T01:08:05;6.80;;;3.33;;
45848;SDS011;31567;54.600;9.842;2023-11-22T01:11:44;3.97;;;2.92;;
45848;SDS011;31567;54.600;9.842;2023-11-22T01:15:24;4.00;;;3.13;;
45848;SDS011;31567;54.600;9.842;2023-11-22T01:19:04;5.38;;;3.28;;
45848;SDS011;31567;54.600;9.842;2023-11-22T01:22:43;6.35;;;3.22;;
45848;SDS011;31567;54.600;9.842;2023-11-22T01:26:23;4.15;;;3.42;;
45848;SDS011;31567;54.600;9.842;2023-11-22T01:30:03;5.30;;;3.88;;
45848;SDS011;31567;54.600;9.842;2023-11-22T01:33:43;5.05;;;3.85;;
45848;SDS011;31567;54.600;9.842;2023-11-22T01:37:22;6.68;;;3.65;;
45848;SDS011;31567;54.600;9.842;2023-11-22T01:41:02;6.30;;;3.58;;
45848;SDS011;31567;54.600;9.842;2023-11-22T01:44:42;5.30;;;4.05;;
45848;SDS011;31567;54.600;9.842;2023-11-22T01:48:22;7.57;;;4.07;;
45848;SDS011;31567;54.600;9.842;2023-11-22T01:52:02;4.18;;;3.72;;
45848;SDS011;31567;54.600;9.842;2023-11-22T01:55:43;5.90;;;4.20;;
45848;SDS011;31567;54.600;9.842;2023-11-22T01:59:25;5.18;;;4.07;;
45848;SDS011;31567;54.600;9.842;2023-11-22T02:03:05;8.73;;;4.55;;
45848;SDS011;31567;54.600;9.842;2023-11-22T02:06:44;7.28;;;4.43;;
45848;SDS011;31567;54.600;9.842;2023-11-22T02:10:24;6.57;;;3.70;;
45848;SDS011;31567;54.600;9.842;2023-11-22T02:14:04;5.68;;;4.15;;
45848;SDS011;31567;54.600;9.842;2023-11-22T02:17:46;5.78;;;4.43;;
45848;SDS011;31567;54.600;9.842;2023-11-22T02:21:25;5.32;;;4.30;;
45848;SDS011;31567;54.600;9.842;2023-11-22T02:25:05;5.80;;;4.45;;
45848;SDS011;31567;54.600;9.842;2023-11-22T02:28:45;5.82;;;4.25;;
45848;SDS011;31567;54.600;9.842;2023-11-22T02:32:25;5.68;;;4.15;;
45848;SDS011;31567;54.600;9.842;2023-11-22T02:36:06;6.38;;;4.32;;
45848;SDS011;31567;54.600;9.842;2023-11-22T02:39:54;4.95;;;3.63;;
45848;SDS011;31567;54.600;9.842;2023-11-22T02:43:44;6.85;;;4.90;;
45848;SDS011;31567;54.600;9.842;2023-11-22T02:47:25;10.32;;;5.25;;
45848;SDS011;31567;54.600;9.842;2023-11-22T02:51:04;6.90;;;5.43;;
45848;SDS011;31567;54.600;9.842;2023-11-22T02:54:45;6.22;;;4.68;;
45848;SDS011;31567;54.600;9.842;2023-11-22T02:58:25;9.30;;;4.82;;
45848;SDS011;31567;54.600;9.842;2023-11-22T03:02:05;7.95;;;5.20;;
45848;SDS011;31567;54.600;9.842;2023-11-22T03:05:44;7.30;;;5.47;;
45848;SDS011;31567;54.600;9.842;2023-11-22T03:09:24;8.43;;;5.15;;
45848;SDS011;31567;54.600;9.842;2023-11-22T03:13:05;7.70;;;5.65;;
45848;SDS011;31567;54.600;9.842;2023-11-22T03:16:44;8.20;;;5.13;;
45848;SDS011;31567;54.600;9.842;2023-11-22T03:20:24;9.52;;;5.97;;
45848;SDS011;31567;54.600;9.842;2023-11-22T03:24:03;8.00;;;5.45;;
45848;SDS011;31567;54.600;9.842;2023-11-22T03:27:43;8.63;;;5.57;;
45848;SDS011;31567;54.600;9.842;2023-11-22T03:31:23;8.95;;;4.97;;
45848;SDS011;31567;54.600;9.842;2023-11-22T03:35:03;9.75;;;5.22;;
45848;SDS011;31567;54.600;9.842;2023-11-22T03:38:44;6.85;;;4.75;;
45848;SDS011;31567;54.600;9.842;2023-11-22T03:42:23;8.43;;;5.72;;
45848;SDS011;31567;54.600;9.842;2023-11-22T03:46:03;7.40;;;5.28;;
45848;SDS011;31567;54.600;9.842;2023-11-22T03:49:42;8.38;;;5.43;;
45848;SDS011;31567;54.600;9.842;2023-11-22T03:53:22;7.45;;;6.07;;
45848;SDS011;31567;54.600;9.842;2023-11-22T03:57:02;6.93;;;5.22;;
45848;SDS011;31567;54.600;9.842;2023-11-22T04:00:42;8.10;;;5.47;;
45848;SDS011;31567;54.600;9.842;2023-11-22T04:04:21;10.38;;;5.47;;
45848;SDS011;31567;54.600;9.842;2023-11-22T04:08:01;2.17;;;0.80;;
45848;SDS011;31567;54.600;9.842;2023-11-22T04:11:40;3.70;;;0.60;;
45848;SDS011;31567;54.600;9.842;2023-11-22T04:15:20;1.52;;;1.42;;
45848;SDS011;31567;54.600;9.842;2023-11-22T04:19:00;0.88;;;0.80;;
45848;SDS011;31567;54.600;9.842;2023-11-22T04:22:40;1.35;;;0.40;;
45848;SDS011;31567;54.600;9.842;2023-11-22T04:26:20;1.02;;;0.55;;
45848;SDS011;31567;54.600;9.842;2023-11-22T04:30:00;2.70;;;0.70;;
45848;SDS011;31567;54.600;9.842;2023-11-22T04:33:40;1.20;;;1.05;;
45848;SDS011;31567;54.600;9.842;2023-11-22T04:37:19;0.73;;;0.70;;
45848;SDS011;31567;54.600;9.842;2023-11-22T04:41:01;0.70;;;0.70;;
45848;SDS011;31567;54.600;9.842;2023-11-22T04:44:40;1.52;;;0.90;;
45848;SDS011;31567;54.600;9.842;2023-11-22T04:48:20;1.23;;;1.13;;
45848;SDS011;31567;54.600;9.842;2023-11-22T04:51:59;5.65;;;2.10;;
45848;SDS011;31567;54.600;9.842;2023-11-22T04:55:40;2.47;;;2.28;;
45848;SDS011;31567;54.600;9.842;2023-11-22T04:59:19;3.15;;;2.08;;
45848;SDS011;31567;54.600;9.842;2023-11-22T05:02:59;3.28;;;2.50;;
45848;SDS011;31567;54.600;9.842;2023-11-22T05:06:38;3.47;;;2.60;;
45848;SDS011;31567;54.600;9.842;2023-11-22T05:10:18;3.42;;;2.50;;
45848;SDS011;31567;54.600;9.842;2023-11-22T05:13:58;3.50;;;2.53;;
45848;SDS011;31567;54.600;9.842;2023-11-22T05:17:37;3.60;;;2.60;;
45848;SDS011;31567;54.600;9.842;2023-11-22T05:21:17;2.25;;;2.05;;
45848;SDS011;31567;54.600;9.842;2023-11-22T05:24:56;4.60;;;2.67;;
45848;SDS011;31567;54.600;9.842;2023-11-22T05:28:36;3.25;;;2.83;;
45848;SDS011;31567;54.600;9.842;2023-11-22T05:32:16;3.20;;;2.90;;
45848;SDS011;31567;54.600;9.842;2023-11-22T05:35:56;3.65;;;2.60;;
45848;SDS011;31567;54.600;9.842;2023-11-22T05:39:35;2.92;;;2.63;;
45848;SDS011;31567;54.600;9.842;2023-11-22T05:43:15;5.13;;;3.30;;
45848;SDS011;31567;54.600;9.842;2023-11-22T05:46:56;3.63;;;3.20;;
45848;SDS011;31567;54.600;9.842;2023-11-22T05:50:36;3.47;;;3.03;;
45848;SDS011;31567;54.600;9.842;2023-11-22T05:54:15;3.50;;;2.58;;
45848;SDS011;31567;54.600;9.842;2023-11-22T05:57:55;3.17;;;2.53;;
45848;SDS011;31567;54.600;9.842;2023-11-22T06:01:35;5.65;;;3.45;;
45848;SDS011;31567;54.600;9.842;2023-11-22T06:05:14;5.55;;;3.10;;
45848;SDS011;31567;54.600;9.842;2023-11-22T06:08:54;4.07;;;2.58;;
45848;SDS011;31567;54.600;9.842;2023-11-22T06:12:34;4.32;;;2.70;;
45848;SDS011;31567;54.600;9.842;2023-11-22T06:16:14;3.97;;;3.15;;
45848;SDS011;31567;54.600;9.842;2023-11-22T06:19:53;5.18;;;3.72;;
45848;SDS011;31567;54.600;9.842;2023-11-22T06:23:33;7.00;;;3.97;;
45848;SDS011;31567;54.600;9.842;2023-11-22T06:27:13;5.03;;;3.45;;
45848;SDS011;31567;54.600;9.842;2023-11-22T06:30:54;4.57;;;3.45;;
45848;SDS011;31567;54.600;9.842;2023-11-22T06:34:33;4.22;;;3.75;;
45848;SDS011;31567;54.600;9.842;2023-11-22T06:38:13;4.10;;;3.63;;
45848;SDS011;31567;54.600;9.842;2023-11-22T06:41:52;5.60;;;3.20;;
45848;SDS011;31567;54.600;9.842;2023-11-22T06:45:32;5.50;;;3.42;;
45848;SDS011;31567;54.600;9.842;2023-11-22T06:49:12;4.30;;;3.83;;
45848;SDS011;31567;54.600;9.842;2023-11-22T06:52:51;3.53;;;3.20;;
45848;SDS011;31567;54.600;9.842;2023-11-22T06:56:31;4.03;;;3.20;;
45848;SDS011;31567;54.600;9.842;2023-11-22T07:00:11;5.40;;;3.90;;
45848;SDS011;31567;54.600;9.842;2023-11-22T07:03:51;7.10;;;4.07;;
45848;SDS011;31567;54.600;9.842;2023-11-22T07:07:31;7.38;;;4.10;;
45848;SDS011;31567;54.600;9.842;2023-11-22T07:11:11;6.85;;;3.95;;
45848;SDS011;31567;54.600;9.842;2023-11-22T07:14:51;5.25;;;3.58;;
45848;SDS011;31567;54.600;9.842;2023-11-22T07:18:30;3.42;;;3.13;;
45848;SDS011;31567;54.600;9.842;2023-11-22T07:22:11;5.13;;;3.60;;
45848;SDS011;31567;54.600;9.842;2023-11-22T07:25:55;4.63;;;3.67;;
45848;SDS011;31567;54.600;9.842;2023-11-22T07:29:34;4.72;;;3.42;;
45848;SDS011;31567;54.600;9.842;2023-11-22T07:33:14;3.83;;;3.08;;
45848;SDS011;31567;54.600;9.842;2023-11-22T07:36:54;4.10;;;3.25;;
45848;SDS011;31567;54.600;9.842;2023-11-22T07:40:34;3.97;;;3.58;;
45848;SDS011;31567;54.600;9.842;2023-11-22T07:44:14;7.55;;;3.80;;
45848;SDS011;31567;54.600;9.842;2023-11-22T07:47:53;3.53;;;3.22;;
45848;SDS011;31567;54.600;9.842;2023-11-22T07:51:35;5.22;;;3.72;;
45848;SDS011;31567;54.600;9.842;2023-11-22T07:55:16;4.38;;;3.97;;
45848;SDS011;31567;54.600;9.842;2023-11-22T07:58:57;5.95;;;3.95;;
45848;SDS011;31567;54.600;9.842;2023-11-22T08:02:37;5.20;;;4.35;;
45848;SDS011;31567;54.600;9.842;2023-11-22T08:06:22;7.75;;;4.22;;
45848;SDS011;31567;54.600;9.842;2023-11-22T08:10:01;4.07;;;3.40;;
45848;SDS011;31567;54.600;9.842;2023-11-22T08:13:48;4.10;;;3.70;;
45848;SDS011;31567;54.600;9.842;2023-11-22T08:17:27;4.07;;;3.60;;
45848;SDS011;31567;54.600;9.842;2023-11-22T08:21:07;5.30;;;3.92;;
45848;SDS011;31567;54.600;9.842;2023-11-22T08:24:47;5.22;;;4.03;;
45848;SDS011;31567;54.600;9.842;2023-11-22T08:28:26;3.47;;;3.17;;
45848;SDS011;31567;54.600;9.842;2023-11-22T08:32:08;4.05;;;3.45;;
45848;SDS011;31567;54.600;9.842;2023-11-22T08:35:47;4.60;;;3.55;;
45848;SDS011;31567;54.600;9.842;2023-11-22T08:39:29;4.22;;;2.83;;
45848;SDS011;31567;54.600;9.842;2023-11-22T08:43:09;4.53;;;3.63;;
45848;SDS011;31567;54.600;9.842;2023-11-22T08:46:49;3.45;;;3.15;;
45848;SDS011;31567;54.600;9.842;2023-11-22T08:50:28;3.70;;;2.90;;
45848;SDS011;31567;54.600;9.842;2023-11-22T08:54:08;2.88;;;2.67;;
45848;SDS011;31567;54.600;9.842;2023-11-22T08:57:48;2.88;;;2.40;;
45848;SDS011;31567;54.600;9.842;2023-11-22T09:01:30;2.88;;;2.63;;
45848;SDS011;31567;54.600;9.842;2023-11-22T09:05:09;2.28;;;2.08;;
45848;SDS011;31567;54.600;9.842;2023-11-22T09:08:51;2.40;;;2.20;;
45848;SDS011;31567;54.600;9.842;2023-11-22T09:12:31;3.05;;;1.85;;
45848;SDS011;31567;54.600;9.842;2023-11-22T09:16:10;4.93;;;3.00;;
45848;SDS011;31567;54.600;9.842;2023-11-22T09:19:51;2.00;;;1.85;;
45848;SDS011;31567;54.600;9.842;2023-11-22T09:23:31;1.85;;;1.75;;
45848;SDS011;31567;54.600;9.842;2023-11-22T09:27:10;1.70;;;1.60;;
45848;SDS011;31567;54.600;9.842;2023-11-22T09:30:54;2.67;;;1.77;;
45848;SDS011;31567;54.600;9.842;2023-11-22T09:34:40;2.37;;;1.73;;
45848;SDS011;31567;54.600;9.842;2023-11-22T09:38:20;4.32;;;1.70;;
45848;SDS011;31567;54.600;9.842;2023-11-22T09:41:59;1.70;;;1.52;;
45848;SDS011;31567;54.600;9.842;2023-11-22T09:45:40;1.45;;;1.35;;
45848;SDS011;31567;54.600;9.842;2023-11-22T09:49:20;2.53;;;1.52;;
45848;SDS011;31567;54.600;9.842;2023-11-22T09:53:05;2.45;;;1.50;;
45848;SDS011;31567;54.600;9.842;2023-11-22T09:56:51;2.10;;;1.48;;
45848;SDS011;31567;54.600;9.842;2023-11-22T10:00:32;2.47;;;1.75;;
45848;SDS011;31567;54.600;9.842;2023-11-22T10:04:11;2.80;;;1.77;;
45848;SDS011;31567;54.600;9.842;2023-11-22T10:07:51;1.67;;;1.58;;
45848;SDS011;31567;54.600;9.842;2023-11-22T10:11:31;2.35;;;2.15;;
45848;SDS011;31567;54.600;9.842;2023-11-22T10:15:14;2.15;;;1.95;;
45848;SDS011;31567;54.600;9.842;2023-11-22T10:18:55;2.90;;;1.85;;
45848;SDS011;31567;54.600;9.842;2023-11-22T10:22:46;4.10;;;1.70;;
45848;SDS011;31567;54.600;9.842;2023-11-22T10:26:26;2.22;;;1.77;;
45848;SDS011;31567;54.600;9.842;2023-11-22T10:30:07;2.05;;;1.23;;
45848;SDS011;31567;54.600;9.842;2023-11-22T10:33:49;2.08;;;1.70;;
45848;SDS011;31567;54.600;9.842;2023-11-22T10:37:29;1.98;;;1.50;;
45848;SDS011;31567;54.600;9.842;2023-11-22T10:41:08;2.30;;;2.03;;
45848;SDS011;31567;54.600;9.842;2023-11-22T10:44:49;2.35;;;2.15;;
45848;SDS011;31567;54.600;9.842;2023-11-22T10:48:29;3.15;;;2.28;;
45848;SDS011;31567;54.600;9.842;2023-11-22T10:52:11;2.75;;;2.50;;
45848;SDS011;31567;54.600;9.842;2023-11-22T10:55:53;3.53;;;2.58;;
45848;SDS011;31567;54.600;9.842;2023-11-22T10:59:39;2.43;;;2.23;;
45848;SDS011;31567;54.600;9.842;2023-11-22T11:03:22;3.47;;;2.30;;
45848;SDS011;31567;54.600;9.842;2023-11-22T11:07:08;2.83;;;2.20;;
45848;SDS011;31567;54.600;9.842;2023-11-22T11:10:54;2.10;;;1.90;;
45848;SDS011;31567;54.600;9.842;2023-11-22T11:14:35;2.63;;;2.22;;
45848;SDS011;31567;54.600;9.842;2023-11-22T11:18:15;2.83;;;2.45;;
45848;SDS011;31567;54.600;9.842;2023-11-22T11:21:56;3.33;;;3.03;;
45848;SDS011;31567;54.600;9.842;2023-11-22T11:25:38;3.33;;;2.72;;
45848;SDS011;31567;54.600;9.842;2023-11-22T11:29:34;3.72;;;2.03;;
45848;SDS011;31567;54.600;9.842;2023-11-22T11:33:32;2.75;;;1.90;;
45848;SDS011;31567;54.600;9.842;2023-11-22T11:40:53;1.90;;;1.60;;
45848;SDS011;31567;54.600;9.842;2023-11-22T11:44:33;2.92;;;1.83;;
45848;SDS011;31567;54.600;9.842;2023-11-22T11:48:13;3.72;;;2.03;;
45848;SDS011;31567;54.600;9.842;2023-11-22T11:51:54;2.05;;;1.92;;
45848;SDS011;31567;54.600;9.842;2023-11-22T11:55:34;2.05;;;1.60;;
45848;SDS011;31567;54.600;9.842;2023-11-22T11:59:13;2.03;;;1.83;;
45848;SDS011;31567;54.600;9.842;2023-11-22T12:02:53;2.30;;;2.10;;
45848;SDS011;31567;54.600;9.842;2023-11-22T12:06:33;1.90;;;1.80;;
45848;SDS011;31567;54.600;9.842;2023-11-22T12:10:15;3.72;;;1.90;;
45848;SDS011;31567;54.600;9.842;2023-11-22T12:13:55;4.18;;;2.78;;
45848;SDS011;31567;54.600;9.842;2023-11-22T12:17:35;2.97;;;2.60;;
45848;SDS011;31567;54.600;9.842;2023-11-22T12:21:18;3.65;;;2.80;;
45848;SDS011;31567;54.600;9.842;2023-11-22T12:24:58;3.22;;;2.22;;
45848;SDS011;31567;54.600;9.842;2023-11-22T12:28:38;2.40;;;2.20;;
45848;SDS011;31567;54.600;9.842;2023-11-22T12:32:23;2.55;;;2.35;;
45848;SDS011;31567;54.600;9.842;2023-11-22T12:36:04;9.77;;;3.90;;
45848;SDS011;31567;54.600;9.842;2023-11-22T12:39:44;3.42;;;2.15;;
45848;SDS011;31567;54.600;9.842;2023-11-22T12:43:27;2.00;;;1.88;;
45848;SDS011;31567;54.600;9.842;2023-11-22T12:47:07;2.08;;;1.88;;
45848;SDS011;31567;54.600;9.842;2023-11-22T12:50:50;3.83;;;1.98;;
45848;SDS011;31567;54.600;9.842;2023-11-22T12:54:31;2.88;;;1.92;;
45848;SDS011;31567;54.600;9.842;2023-11-22T12:58:12;4.20;;;2.28;;
45848;SDS011;31567;54.600;9.842;2023-11-22T13:01:52;1.55;;;1.42;;
45848;SDS011;31567;54.600;9.842;2023-11-22T13:05:31;2.80;;;1.95;;
45848;SDS011;31567;54.600;9.842;2023-11-22T13:09:11;2.10;;;1.90;;
45848;SDS011;31567;54.600;9.842;2023-11-22T13:12:54;1.92;;;1.73;;
45848;SDS011;31567;54.600;9.842;2023-11-22T13:16:33;2.92;;;1.90;;
45848;SDS011;31567;54.600;9.842;2023-11-22T13:20:13;2.88;;;1.40;;
45848;SDS011;31567;54.600;9.842;2023-11-22T13:23:54;2.78;;;1.52;;
45848;SDS011;31567;54.600;9.842;2023-11-22T13:27:35;2.00;;;1.88;;
45848;SDS011;31567;54.600;9.842;2023-11-22T13:31:15;1.75;;;1.65;;
45848;SDS011;31567;54.600;9.842;2023-11-22T13:34:54;3.55;;;1.70;;
45848;SDS011;31567;54.600;9.842;2023-11-22T13:38:35;1.90;;;1.67;;
45848;SDS011;31567;54.600;9.842;2023-11-22T13:42:16;1.60;;;1.50;;
45848;SDS011;31567;54.600;9.842;2023-11-22T13:45:55;2.58;;;1.45;;
45848;SDS011;31567;54.600;9.842;2023-11-22T13:49:35;2.80;;;2.03;;
45848;SDS011;31567;54.600;9.842;2023-11-22T13:53:16;1.25;;;1.10;;
45848;SDS011;31567;54.600;9.842;2023-11-22T13:57:00;1.30;;;1.20;;
45848;SDS011;31567;54.600;9.842;2023-11-22T14:00:39;1.40;;;1.30;;
45848;SDS011;31567;54.600;9.842;2023-11-22T14:04:19;1.50;;;1.40;;
45848;SDS011;31567;54.600;9.842;2023-11-22T14:07:59;1.27;;;1.17;;
45848;SDS011;31567;54.600;9.842;2023-11-22T14:11:39;1.40;;;1.30;;
45848;SDS011;31567;54.600;9.842;2023-11-22T14:15:19;1.77;;;0.95;;
45848;SDS011;31567;54.600;9.842;2023-11-22T14:18:58;1.77;;;1.42;;
45848;SDS011;31567;54.600;9.842;2023-11-22T14:22:38;2.00;;;1.30;;
45848;SDS011;31567;54.600;9.842;2023-11-22T14:26:18;3.05;;;1.75;;
45848;SDS011;31567;54.600;9.842;2023-11-22T14:29:58;1.80;;;1.48;;
45848;SDS011;31567;54.600;9.842;2023-11-22T14:33:37;2.22;;;1.25;;
45848;SDS011;31567;54.600;9.842;2023-11-22T14:37:18;1.30;;;1.20;;
45848;SDS011;31567;54.600;9.842;2023-11-22T14:40:58;1.80;;;1.70;;
45848;SDS011;31567;54.600;9.842;2023-11-22T14:44:38;1.77;;;1.30;;
45848;SDS011;31567;54.600;9.842;2023-11-22T14:48:17;1.17;;;1.17;;
45848;SDS011;31567;54.600;9.842;2023-11-22T14:51:57;2.15;;;0.90;;
45848;SDS011;31567;54.600;9.842;2023-11-22T14:55:37;1.15;;;1.00;;
45848;SDS011;31567;54.600;9.842;2023-11-22T14:59:19;0.80;;;0.70;;
45848;SDS011;31567;54.600;9.842;2023-11-22T15:02:59;0.73;;;0.73;;
45848;SDS011;31567;54.600;9.842;2023-11-22T15:06:39;1.55;;;1.13;;
45848;SDS011;31567;54.600;9.842;2023-11-22T15:10:18;1.60;;;0.90;;
45848;SDS011;31567;54.600;9.842;2023-11-22T15:13:58;2.08;;;1.65;;
45848;SDS011;31567;54.600;9.842;2023-11-22T15:17:38;1.10;;;0.95;;
45848;SDS011;31567;54.600;9.842;2023-11-22T15:21:18;1.73;;;0.90;;
45848;SDS011;31567;54.600;9.842;2023-11-22T15:24:58;1.50;;;0.90;;
45848;SDS011;31567;54.600;9.842;2023-11-22T15:28:38;0.65;;;0.65;;
45848;SDS011;31567;54.600;9.842;2023-11-22T15:32:18;2.38;;;1.05;;
45848;SDS011;31567;54.600;9.842;2023-11-22T15:35:58;1.40;;;1.30;;
45848;SDS011;31567;54.600;9.842;2023-11-22T15:39:38;3.60;;;1.02;;
45848;SDS011;31567;54.600;9.842;2023-11-22T15:43:17;1.15;;;0.50;;
45848;SDS011;31567;54.600;9.842;2023-11-22T15:46:57;1.52;;;1.10;;
45848;SDS011;31567;54.600;9.842;2023-11-22T15:50:37;0.90;;;0.88;;
45848;SDS011;31567;54.600;9.842;2023-11-22T15:54:16;1.35;;;0.88;;
45848;SDS011;31567;54.600;9.842;2023-11-22T15:57:56;1.17;;;0.68;;
45848;SDS011;31567;54.600;9.842;2023-11-22T16:01:36;0.80;;;0.80;;
45848;SDS011;31567;54.600;9.842;2023-11-22T16:05:15;1.00;;;0.85;;
45848;SDS011;31567;54.600;9.842;2023-11-22T16:08:55;1.05;;;0.77;;
45848;SDS011;31567;54.600;9.842;2023-11-22T16:12:35;0.70;;;0.70;;
45848;SDS011;31567;54.600;9.842;2023-11-22T16:16:14;2.80;;;1.63;;
45848;SDS011;31567;54.600;9.842;2023-11-22T16:19:54;0.88;;;0.88;;
45848;SDS011;31567;54.600;9.842;2023-11-22T16:23:35;1.13;;;1.00;;
45848;SDS011;31567;54.600;9.842;2023-11-22T16:27:15;1.95;;;1.00;;
45848;SDS011;31567;54.600;9.842;2023-11-22T16:30:54;1.10;;;1.00;;
45848;SDS011;31567;54.600;9.842;2023-11-22T16:34:34;0.60;;;0.60;;
45848;SDS011;31567;54.600;9.842;2023-11-22T16:38:13;2.55;;;1.38;;
45848;SDS011;31567;54.600;9.842;2023-11-22T16:41:53;2.13;;;1.30;;
45848;SDS011;31567;54.600;9.842;2023-11-22T16:45:32;1.10;;;1.10;;
45848;SDS011;31567;54.600;9.842;2023-11-22T16:49:12;5.45;;;1.38;;
45848;SDS011;31567;54.600;9.842;2023-11-22T16:52:54;1.23;;;1.23;;
45848;SDS011;31567;54.600;9.842;2023-11-22T16:56:33;4.53;;;1.30;;
45848;SDS011;31567;54.600;9.842;2023-11-22T17:00:13;1.48;;;1.38;;
45848;SDS011;31567;54.600;9.842;2023-11-22T17:03:59;2.47;;;1.50;;
45848;SDS011;31567;54.600;9.842;2023-11-22T17:07:39;1.30;;;1.20;;
45848;SDS011;31567;54.600;9.842;2023-11-22T17:11:18;1.02;;;0.98;;
45848;SDS011;31567;54.600;9.842;2023-11-22T17:14:58;1.55;;;1.45;;
45848;SDS011;31567;54.600;9.842;2023-11-22T17:18:37;1.90;;;1.63;;
45848;SDS011;31567;54.600;9.842;2023-11-22T17:22:18;1.63;;;1.52;;
45848;SDS011;31567;54.600;9.842;2023-11-22T17:25:57;1.88;;;1.42;;
45848;SDS011;31567;54.600;9.842;2023-11-22T17:29:37;2.80;;;1.67;;
45848;SDS011;31567;54.600;9.842;2023-11-22T17:33:16;1.77;;;1.67;;
45848;SDS011;31567;54.600;9.842;2023-11-22T17:36:56;2.60;;;1.55;;
45848;SDS011;31567;54.600;9.842;2023-11-22T17:40:37;1.75;;;1.60;;
45848;SDS011;31567;54.600;9.842;2023-11-22T17:44:17;1.70;;;1.60;;
45848;SDS011;31567;54.600;9.842;2023-11-22T17:47:56;1.40;;;1.30;;
45848;SDS011;31567;54.600;9.842;2023-11-22T17:51:40;2.67;;;1.88;;
45848;SDS011;31567;54.600;9.842;2023-11-22T17:55:20;1.65;;;1.35;;
45848;SDS011;31567;54.600;9.842;2023-11-22T17:59:00;1.48;;;1.38;;
45848;SDS011;31567;54.600;9.842;2023-11-22T18:02:41;1.40;;;1.30;;
45848;SDS011;31567;54.600;9.842;2023-11-22T18:06:22;1.73;;;1.63;;
45848;SDS011;31567;54.600;9.842;2023-11-22T18:10:02;2.92;;;2.58;;
45848;SDS011;31567;54.600;9.842;2023-11-22T18:13:44;1.92;;;1.33;;
45848;SDS011;31567;54.600;9.842;2023-11-22T18:17:24;1.85;;;1.75;;
45848;SDS011;31567;54.600;9.842;2023-11-22T18:21:04;1.95;;;1.70;;
45848;SDS011;31567;54.600;9.842;2023-11-22T18:24:44;2.25;;;1.92;;
45848;SDS011;31567;54.600;9.842;2023-11-22T18:28:23;2.45;;;1.95;;
45848;SDS011;31567;54.600;9.842;2023-11-22T18:32:03;2.00;;;1.80;;
45848;SDS011;31567;54.600;9.842;2023-11-22T18:35:43;1.52;;;1.42;;
45848;SDS011;31567;54.600;9.842;2023-11-22T18:39:22;2.30;;;2.10;;
45848;SDS011;31567;54.600;9.842;2023-11-22T18:43:02;3.17;;;2.20;;
45848;SDS011;31567;54.600;9.842;2023-11-22T18:46:44;2.10;;;1.90;;
45848;SDS011;31567;54.600;9.842;2023-11-22T18:50:25;3.05;;;2.72;;
45848;SDS011;31567;54.600;9.842;2023-11-22T18:54:05;2.30;;;2.10;;
45848;SDS011;31567;54.600;9.842;2023-11-22T18:57:45;2.75;;;2.35;;
45848;SDS011;31567;54.600;9.842;2023-11-22T19:01:26;2.65;;;2.10;;
45848;SDS011;31567;54.600;9.842;2023-11-22T19:05:05;3.65;;;1.98;;
45848;SDS011;31567;54.600;9.842;2023-11-22T19:08:46;3.25;;;2.00;;
45848;SDS011;31567;54.600;9.842;2023-11-22T19:12:25;2.80;;;2.20;;
45848;SDS011;31567;54.600;9.842;2023-11-22T19:16:05;4.78;;;2.13;;
45848;SDS011;31567;54.600;9.842;2023-11-22T19:19:45;4.15;;;2.17;;
45848;SDS011;31567;54.600;9.842;2023-11-22T19:23:25;3.45;;;1.80;;
45848;SDS011;31567;54.600;9.842;2023-11-22T19:27:05;3.40;;;3.10;;
45848;SDS011;31567;54.600;9.842;2023-11-22T19:30:46;2.60;;;2.22;;
45848;SDS011;31567;54.600;9.842;2023-11-22T19:34:26;3.67;;;2.35;;
45848;SDS011;31567;54.600;9.842;2023-11-22T19:38:05;4.07;;;2.95;;
45848;SDS011;31567;54.600;9.842;2023-11-22T19:41:45;3.95;;;3.45;;
45848;SDS011;31567;54.600;9.842;2023-11-22T19:45:24;4.03;;;3.50;;
45848;SDS011;31567;54.600;9.842;2023-11-22T19:49:04;5.07;;;4.20;;
45848;SDS011;31567;54.600;9.842;2023-11-22T19:52:43;7.60;;;4.63;;
45848;SDS011;31567;54.600;9.842;2023-11-22T19:56:26;5.25;;;3.55;;
45848;SDS011;31567;54.600;9.842;2023-11-22T20:00:06;4.50;;;3.83;;
45848;SDS011;31567;54.600;9.842;2023-11-22T20:03:46;7.15;;;4.57;;
45848;SDS011;31567;54.600;9.842;2023-11-22T20:07:26;6.47;;;4.75;;
45848;SDS011;31567;54.600;9.842;2023-11-22T20:11:05;8.70;;;4.85;;
45848;SDS011;31567;54.600;9.842;2023-11-22T20:14:45;7.15;;;5.93;;
45848;SDS011;31567;54.600;9.842;2023-11-22T20:18:24;7.18;;;5.47;;
45848;SDS011;31567;54.600;9.842;2023-11-22T20:22:05;7.30;;;5.75;;
45848;SDS011;31567;54.600;9.842;2023-11-22T20:25:45;9.45;;;6.53;;
45848;SDS011;31567;54.600;9.842;2023-11-22T20:29:24;10.95;;;6.30;;
45848;SDS011;31567;54.600;9.842;2023-11-22T20:33:04;8.75;;;6.90;;
45848;SDS011;31567;54.600;9.842;2023-11-22T20:36:44;10.10;;;7.13;;
45848;SDS011;31567;54.600;9.842;2023-11-22T20:40:24;9.77;;;6.70;;
45848;SDS011;31567;54.600;9.842;2023-11-22T20:44:04;10.43;;;7.57;;
45848;SDS011;31567;54.600;9.842;2023-11-22T20:47:43;10.75;;;7.35;;
45848;SDS011;31567;54.600;9.842;2023-11-22T20:51:24;18.77;;;8.93;;
45848;SDS011;31567;54.600;9.842;2023-11-22T20:55:04;11.65;;;8.27;;
45848;SDS011;31567;54.600;9.842;2023-11-22T20:58:47;13.68;;;8.63;;
45848;SDS011;31567;54.600;9.842;2023-11-22T21:02:27;14.98;;;8.95;;
45848;SDS011;31567;54.600;9.842;2023-11-22T21:06:06;16.90;;;9.35;;
45848;SDS011;31567;54.600;9.842;2023-11-22T21:09:46;17.05;;;9.98;;
45848;SDS011;31567;54.600;9.842;2023-11-22T21:13:25;15.43;;;10.02;;
45848;SDS011;31567;54.600;9.842;2023-11-22T21:17:05;18.98;;;12.32;;
45848;SDS011;31567;54.600;9.842;2023-11-22T21:20:45;19.35;;;11.60;;
45848;SDS011;31567;54.600;9.842;2023-11-22T21:24:26;19.33;;;12.50;;
45848;SDS011;31567;54.600;9.842;2023-11-22T21:28:09;23.85;;;13.15;;
45848;SDS011;31567;54.600;9.842;2023-11-22T21:31:49;24.42;;;12.98;;
45848;SDS011;31567;54.600;9.842;2023-11-22T21:35:28;22.80;;;13.45;;
45848;SDS011;31567;54.600;9.842;2023-11-22T21:39:08;30.48;;;17.52;;
45848;SDS011;31567;54.600;9.842;2023-11-22T21:42:51;31.20;;;16.60;;
45848;SDS011;31567;54.600;9.842;2023-11-22T21:46:30;26.33;;;15.80;;
45848;SDS011;31567;54.600;9.842;2023-11-22T21:50:10;30.55;;;14.95;;
45848;SDS011;31567;54.600;9.842;2023-11-22T21:53:53;32.78;;;15.13;;
45848;SDS011;31567;54.600;9.842;2023-11-22T21:57:33;29.98;;;17.10;;
45848;SDS011;31567;54.600;9.842;2023-11-22T22:01:13;26.88;;;15.18;;
45848;SDS011;31567;54.600;9.842;2023-11-22T22:04:53;29.30;;;16.45;;
45848;SDS011;31567;54.600;9.842;2023-11-22T22:08:32;32.78;;;15.88;;